Campti, Louisiana
Current Conditions -  °F | °C
As of 3:35 PM on Wednesday 26 Nov 2014 (Local Time) from KIER Reporting Station
Clear Clear  
Wind Chill: 69°   Ceiling: Unl
Heat Index: 69°   Visibility: 10mi
Dew Point: 39°   Wind: 12mph
Humidity: 33%   Direction: 250°WSW
Pressure: 30.13"   Gusts: 17mph
Location:  31.89°N, 93.12°W
Report Text: KIER 262135Z AUTO 25010G15KT 10SM CLR 21/04 A3013 RMK AO2 T02080040
Loading
Personal Weather Stations






























Interactive Weather Map New forecast layout! Learn more

10-Day Weather Forecast

Advertisements
Track Severe Weather on mobile